Hauptseite
METAR-TAF:

METAR-TAF

Flughäfen :

Fort Drum, New York, Vereinigte Staaten

Breite: 44-03N, Länge: 075-44W, Höhe: 207 m

Beobachtung

Neuester Wetterbericht von vor 59 Minuten, um 00:56 UTC
Wind 6 kt aus West
Temperatur -6°C
Luftfeuchtigkeit 62%
Luftdruck 1018 hPa
Sichtweite: 16.1 km
Himmel klar

METAR: KGTB 160056Z AUTO 28006KT 10SM CLR M06/M12 A3006 RMK AO2 SLP189 T10611118

Zeit: 20:55 (01:55 UTC)


TAF: fehlend

Wetterbeobachtungen und Prognosen von mehr als 4000 Flughäfen (METAR und TAF Bericht).

Die verfügbaren Stationen werden durch gelbe und rote Markierungen auf der Karte dargestellt.

Führen Sie die Maus auf sie, um den Namen der Station zu sehen.

Darauf klicken, um die Beobachtung von Wetterbeobachtungen und Prognosen zu sehen.

Um die Karte zu ändern : klicken Sie auf den grünen Tasten mit einem schwarzen Kreuz Zum Vergrößern, auf den grünen Button mit einem Gedankenstrich zu verkleinern, oder auf die grünen Pfeile für benachbarte Karten.


METAR-TAF: